createdAt,value
2018-06-29T00:01:27.470Z,101452.18
2018-06-29T00:03:57.176Z,101451.77
2018-06-29T00:06:26.888Z,101446.47
2018-06-29T00:08:58.282Z,101455.16
2018-06-29T00:11:27.989Z,101452.55
2018-06-29T00:13:57.754Z,101454.30
2018-06-29T00:16:27.604Z,101461.25
2018-06-29T00:18:57.361Z,101460.50
2018-06-29T00:21:27.097Z,101458.14
2018-06-29T00:23:57.014Z,101454.77
2018-06-29T00:26:26.962Z,101459.39
2018-06-29T00:28:57.374Z,101452.86
2018-06-29T00:31:27.461Z,101459.80
2018-06-29T00:33:57.223Z,101458.94
2018-06-29T00:36:26.876Z,101460.70
2018-06-29T00:38:56.873Z,101456.23
2018-06-29T00:41:26.659Z,101459.25
2018-06-29T00:43:56.465Z,101451.52
2018-06-29T00:46:26.239Z,101447.60
2018-06-29T00:48:56.696Z,101443.75
2018-06-29T00:51:26.779Z,101444.38
2018-06-29T00:53:56.570Z,101443.20
2018-06-29T00:56:27.201Z,101443.75
2018-06-29T00:58:56.861Z,101442.45
2018-06-29T01:01:27.342Z,101445.58
2018-06-29T01:03:56.997Z,101449.84
2018-06-29T01:06:26.665Z,101456.81
2018-06-29T01:08:57.309Z,101446.47
2018-06-29T01:11:27.142Z,101450.83
2018-06-29T01:13:57.738Z,101440.80
2018-06-29T01:16:27.416Z,101444.65
2018-06-29T01:18:57.049Z,101443.45
2018-06-29T01:21:27.881Z,101447.02
2018-06-29T01:23:58.295Z,101443.03
2018-06-29T01:26:28.221Z,101446.05
2018-06-29T01:28:58.148Z,101449.56
2018-06-29T01:31:28.260Z,101446.95
2018-06-29T01:33:59.391Z,101446.20
2018-06-29T01:36:30.746Z,101449.14
2018-06-29T01:39:00.429Z,101441.64
2018-06-29T01:41:30.831Z,101447.50
2018-06-29T01:44:00.395Z,101439.98
2018-06-29T01:46:30.154Z,101443.11
2018-06-29T01:48:59.992Z,101440.21
2018-06-29T01:51:30.341Z,101444.86
2018-06-29T01:54:01.758Z,101441.70
2018-06-29T01:56:31.585Z,101437.31
2018-06-29T01:59:01.718Z,101437.03
2018-06-29T02:01:31.970Z,101433.09
2018-06-29T02:04:02.053Z,101428.79
2018-06-29T02:06:32.695Z,101436.55
2018-06-29T02:09:02.392Z,101433.56
2018-06-29T02:11:32.008Z,101435.38
2018-06-29T02:14:01.743Z,101425.70
2018-06-29T02:16:31.348Z,101424.20
2018-06-29T02:25:51.196Z,101422.95
2018-06-29T02:28:21.943Z,101423.73
2018-06-29T02:30:51.723Z,101426.42
2018-06-29T02:33:21.383Z,101427.75
2018-06-29T02:35:51.465Z,101432.88
2018-06-29T02:38:21.054Z,101436.71
2018-06-29T02:40:50.851Z,101447.98
2018-06-29T02:43:20.633Z,101452.25
2018-06-29T02:45:51.527Z,101446.23
2018-06-29T02:48:22.074Z,101437.37
2018-06-29T02:50:51.696Z,101439.89
2018-06-29T02:53:21.448Z,101438.88
2018-06-29T02:55:51.844Z,101436.66
2018-06-29T02:58:21.532Z,101434.60
2018-06-29T03:00:52.029Z,101427.84
2018-06-29T03:03:21.645Z,101430.19
2018-06-29T03:05:51.274Z,101422.38
2018-06-29T03:08:20.857Z,101424.28
2018-06-29T03:10:50.612Z,101426.03
2018-06-29T03:13:20.278Z,101428.88
2018-06-29T03:15:50.147Z,101431.22
2018-06-29T03:18:20.877Z,101436.45
2018-06-29T03:20:50.478Z,101437.91
2018-06-29T03:23:21.229Z,101439.81
2018-06-29T03:25:51.464Z,101440.80
2018-06-29T03:28:24.062Z,101436.13
2018-06-29T03:30:54.799Z,101434.44
2018-06-29T03:33:24.787Z,101430.45
2018-06-29T03:35:54.470Z,101431.86
2018-06-29T03:38:24.229Z,101424.75
2018-06-29T03:40:53.900Z,101430.02
2018-06-29T03:43:23.626Z,101431.70
2018-06-29T03:45:53.297Z,101439.20
2018-06-29T03:48:23.197Z,101440.55
2018-06-29T03:50:52.783Z,101441.41
2018-06-29T03:53:23.533Z,101441.83
2018-06-29T03:55:53.936Z,101427.93
2018-06-29T03:58:23.577Z,101425.33
2018-06-29T04:00:53.213Z,101425.27
2018-06-29T04:03:23.006Z,101426.44
2018-06-29T04:05:53.112Z,101425.14
2018-06-29T04:08:23.202Z,101422.91
2018-06-29T04:10:52.775Z,101423.19
2018-06-29T04:13:24.464Z,101412.99
2018-06-29T04:15:54.120Z,101417.80
2018-06-29T04:18:23.949Z,101417.78
2018-06-29T04:20:53.664Z,101424.83
2018-06-29T04:23:23.182Z,101423.89
2018-06-29T04:25:52.975Z,101422.83
2018-06-29T04:28:22.658Z,101421.84
2018-06-29T04:30:52.433Z,101423.77
2018-06-29T04:33:23.158Z,101424.91
2018-06-29T04:35:52.943Z,101427.07
2018-06-29T04:38:22.624Z,101423.69
2018-06-29T04:40:53.081Z,101428.17
2018-06-29T04:43:23.914Z,101429.19
2018-06-29T04:45:53.708Z,101432.33
2018-06-29T04:48:23.819Z,101437.28
2018-06-29T04:50:53.505Z,101429.41
2018-06-29T04:53:23.241Z,101436.70
2018-06-29T04:55:53.661Z,101428.03
2018-06-29T04:58:23.770Z,101424.71
2018-06-29T05:00:54.528Z,101429.05
2018-06-29T05:03:24.104Z,101427.75
2018-06-29T05:05:54.033Z,101428.61
2018-06-29T05:08:23.985Z,101418.56
2018-06-29T05:10:53.642Z,101419.78
2018-06-29T05:13:23.617Z,101417.62
2018-06-29T05:15:53.697Z,101422.02
2018-06-29T05:18:24.264Z,101413.90
2018-06-29T05:20:55.713Z,101409.97
2018-06-29T05:23:25.025Z,101412.83
2018-06-29T05:25:55.236Z,101413.87
2018-06-29T05:28:32.496Z,101413.81
2018-06-29T05:31:02.966Z,101405.09
2018-06-29T05:33:34.776Z,101408.66
2018-06-29T05:36:05.669Z,101405.51
2018-06-29T05:38:35.668Z,101401.48
2018-06-29T05:41:05.615Z,101404.56
2018-06-29T05:43:35.318Z,101394.58
2018-06-29T05:46:06.973Z,101397.41
2018-06-29T05:48:37.028Z,101391.14
2018-06-29T05:51:07.590Z,101380.59
2018-06-29T05:53:37.794Z,101383.11
2018-06-29T05:56:08.668Z,101385.75
2018-06-29T05:58:39.001Z,101386.05
2018-06-29T06:01:11.777Z,101393.89
2018-06-29T06:03:42.009Z,101395.70
2018-06-29T06:06:12.044Z,101397.86
2018-06-29T06:08:41.798Z,101388.92
2018-06-29T06:11:11.652Z,101389.52
2018-06-29T06:13:42.005Z,101392.85
2018-06-29T06:16:12.161Z,101381.09
2018-06-29T06:18:41.888Z,101381.89
2018-06-29T06:21:12.592Z,101376.67
2018-06-29T06:23:44.125Z,101381.55
2018-06-29T06:26:13.903Z,101381.48
2018-06-29T06:28:44.906Z,101379.96
2018-06-29T06:31:14.641Z,101379.29
2018-06-29T06:33:44.955Z,101378.23
2018-06-29T06:36:14.892Z,101376.26
2018-06-29T06:38:44.470Z,101378.88
2018-06-29T06:41:14.206Z,101377.00
2018-06-29T06:43:43.546Z,101380.20
2018-06-29T06:46:13.235Z,101374.08
2018-06-29T06:48:42.988Z,101371.78
2018-06-29T06:51:12.754Z,101366.05
2018-06-29T06:53:42.430Z,101377.07
2018-06-29T06:56:12.756Z,101373.59
2018-06-29T06:58:42.238Z,101362.75
2018-06-29T07:01:12.017Z,101360.73
2018-06-29T07:03:41.702Z,101364.33
2018-06-29T07:06:13.068Z,101360.59
2018-06-29T07:08:43.809Z,101357.61
2018-06-29T07:11:13.659Z,101359.88
2018-06-29T07:13:43.399Z,101352.17
2018-06-29T07:16:13.314Z,101354.51
2018-06-29T07:18:43.159Z,101358.08
2018-06-29T07:21:12.915Z,101350.53
2018-06-29T07:23:43.081Z,101342.85
2018-06-29T07:26:13.825Z,101347.67
2018-06-29T07:28:43.662Z,101340.85
2018-06-29T07:31:13.463Z,101351.39
2018-06-29T07:33:43.778Z,101345.86
2018-06-29T07:36:13.588Z,101341.36
2018-06-29T07:38:43.323Z,101336.77
2018-06-29T07:41:13.545Z,101334.63
2018-06-29T07:43:43.448Z,101336.98
2018-06-29T07:46:13.214Z,101336.28
2018-06-29T07:48:43.837Z,101339.08
2018-06-29T07:51:13.867Z,101330.83
2018-06-29T07:53:43.464Z,101336.44
2018-06-29T07:56:13.258Z,101333.81
2018-06-29T07:58:43.021Z,101330.96
2018-06-29T08:01:14.562Z,101333.45
2018-06-29T08:03:44.328Z,101333.53
2018-06-29T08:06:14.344Z,101333.84
2018-06-29T08:08:44.191Z,101328.27
2018-06-29T08:11:13.828Z,101327.08
2018-06-29T08:13:43.475Z,101323.95
2018-06-29T08:16:13.100Z,101317.77
2018-06-29T08:18:43.863Z,101327.83
2018-06-29T08:21:14.117Z,101333.94
2018-06-29T08:23:44.052Z,101323.19
2018-06-29T08:26:25.976Z,101319.88
2018-06-29T08:28:56.057Z,101322.61
2018-06-29T08:31:25.727Z,101327.50
2018-06-29T08:33:55.467Z,101317.55
2018-06-29T08:36:25.188Z,101318.01
2018-06-29T08:38:54.993Z,101321.34
2018-06-29T08:41:25.444Z,101316.34
2018-06-29T08:43:55.496Z,101312.92
2018-06-29T08:46:25.303Z,101304.90
2018-06-29T08:48:55.766Z,101307.56
2018-06-29T08:51:26.048Z,101304.78
2018-06-29T08:53:56.745Z,101296.85
2018-06-29T08:56:26.482Z,101287.02
2018-06-29T08:58:56.457Z,101281.27
2018-06-29T09:01:26.165Z,101285.08
2018-06-29T09:03:56.076Z,101281.73
2018-06-29T09:06:25.681Z,101272.24
2018-06-29T09:08:55.378Z,101275.96
2018-06-29T09:11:24.999Z,101278.87
2018-06-29T09:13:54.616Z,101277.09
2018-06-29T09:16:24.361Z,101275.41
2018-06-29T09:18:54.132Z,101275.80
2018-06-29T09:21:23.787Z,101268.36
2018-06-29T09:23:53.566Z,101268.20
2018-06-29T09:26:23.496Z,101268.37
2018-06-29T09:28:53.524Z,101256.67
2018-06-29T09:31:23.996Z,101252.27
2018-06-29T09:33:53.760Z,101239.57
2018-06-29T09:36:23.602Z,101241.11
2018-06-29T09:38:53.280Z,101236.94
2018-06-29T09:41:26.344Z,101240.02
2018-06-29T09:43:56.103Z,101234.58
2018-06-29T09:46:26.093Z,101229.54
2018-06-29T09:49:00.788Z,101231.44
2018-06-29T09:51:34.583Z,101229.70
2018-06-29T09:54:04.424Z,101222.88
2018-06-29T09:56:34.679Z,101221.66
2018-06-29T09:59:07.510Z,101230.23
2018-06-29T10:01:37.311Z,101225.46
2018-06-29T10:04:07.841Z,101220.37
2018-06-29T10:06:38.575Z,101219.09
2018-06-29T10:09:10.736Z,101215.77
2018-06-29T10:11:40.953Z,101220.96
2018-06-29T10:14:10.894Z,101227.75
2018-06-29T10:16:42.087Z,101224.91
2018-06-29T10:19:13.155Z,101223.06
2018-06-29T10:21:43.799Z,101210.56
2018-06-29T10:24:14.548Z,101210.68
2018-06-29T10:26:44.283Z,101202.25
2018-06-29T10:29:14.043Z,101207.47
2018-06-29T10:31:43.940Z,101201.34
2018-06-29T10:34:13.627Z,101193.36
2018-06-29T10:36:44.339Z,101198.17
2018-06-29T10:39:16.041Z,101196.88
2018-06-29T10:41:45.816Z,101192.92
2018-06-29T10:44:16.285Z,101187.25
2018-06-29T10:46:46.001Z,101188.70
2018-06-29T10:49:17.480Z,101177.77
2018-06-29T10:51:47.626Z,101178.55
2018-06-29T10:54:17.369Z,101187.47
2018-06-29T10:56:47.992Z,101184.83
2018-06-29T10:59:17.728Z,101177.52
2018-06-29T11:01:47.731Z,101176.66
2018-06-29T11:04:20.453Z,101173.45
2018-06-29T11:06:50.219Z,101181.42
2018-06-29T11:09:21.456Z,101167.29
2018-06-29T11:11:51.996Z,101172.73
2018-06-29T11:14:22.134Z,101171.61
2018-06-29T11:16:51.924Z,101168.33
2018-06-29T11:19:23.174Z,101175.64
2018-06-29T11:21:54.931Z,101167.49
2018-06-29T11:24:24.688Z,101165.91
2018-06-29T11:26:54.544Z,101165.44
2018-06-29T11:29:26.435Z,101165.73
2018-06-29T11:31:56.196Z,101162.05
2018-06-29T11:34:25.976Z,101156.88
2018-06-29T11:36:55.699Z,101159.25
2018-06-29T11:39:25.386Z,101144.41
2018-06-29T11:41:56.014Z,101145.91
2018-06-29T11:44:25.791Z,101142.71
2018-06-29T11:46:56.341Z,101143.23
2018-06-29T11:49:26.155Z,101136.59
2018-06-29T11:51:55.886Z,101138.98
2018-06-29T11:54:25.871Z,101128.89
2018-06-29T11:56:55.564Z,101123.73
2018-06-29T11:59:25.291Z,101119.06
2018-06-29T12:01:54.912Z,101113.94
2018-06-29T12:04:24.568Z,101110.17
2018-06-29T12:06:55.116Z,101108.86
2018-06-29T12:09:24.981Z,101105.61
2018-06-29T12:11:55.281Z,101115.66
2018-06-29T12:14:24.964Z,101111.53
2018-06-29T12:16:54.644Z,101096.51
2018-06-29T12:19:24.385Z,101098.93
2018-06-29T12:21:54.120Z,101093.17
2018-06-29T12:24:24.127Z,101094.73
2018-06-29T12:26:54.431Z,101095.13
2018-06-29T12:29:24.105Z,101090.44
2018-06-29T12:31:54.794Z,101091.35
2018-06-29T12:34:24.474Z,101082.16
2018-06-29T12:36:55.727Z,101075.62
2018-06-29T12:39:25.371Z,101075.92
2018-06-29T12:41:55.156Z,101071.25
2018-06-29T12:44:24.504Z,101066.61
2018-06-29T12:46:54.362Z,101074.41
2018-06-29T12:49:24.125Z,101066.45
2018-06-29T12:51:54.816Z,101064.09
2018-06-29T12:54:25.293Z,101057.77
2018-06-29T12:56:55.019Z,101051.78
2018-06-29T12:59:24.861Z,101048.26
2018-06-29T13:01:55.021Z,101049.66
2018-06-29T13:04:24.721Z,101039.09
2018-06-29T13:06:54.331Z,101041.63
2018-06-29T13:09:23.992Z,101043.67
2018-06-29T13:11:53.822Z,101035.11
2018-06-29T13:14:24.446Z,101035.51
2018-06-29T13:16:54.191Z,101030.08
2018-06-29T13:19:24.780Z,101026.32
2018-06-29T13:21:54.441Z,101015.35
2018-06-29T13:24:24.198Z,101021.26
2018-06-29T13:26:55.214Z,101014.63
2018-06-29T13:29:25.084Z,101022.04
2018-06-29T13:31:54.513Z,101022.53
2018-06-29T13:34:24.343Z,101013.63
2018-06-29T13:36:54.284Z,101011.67
2018-06-29T13:39:23.957Z,101007.70
2018-06-29T13:41:53.693Z,101015.66
2018-06-29T13:44:25.730Z,101010.02
2018-06-29T13:46:55.534Z,101024.47
2018-06-29T13:49:25.217Z,101009.77
2018-06-29T13:51:54.889Z,101009.16
2018-06-29T13:54:24.698Z,101001.94
2018-06-29T13:56:54.332Z,101002.38
2018-06-29T13:59:23.966Z,101007.70
2018-06-29T14:01:53.879Z,100998.06
2018-06-29T14:04:25.766Z,100992.02
2018-06-29T14:06:55.420Z,100998.63
2018-06-29T14:09:26.015Z,101001.53
2018-06-29T14:11:55.665Z,100999.75
2018-06-29T14:14:25.408Z,100993.31
2018-06-29T14:16:55.361Z,100990.44
2018-06-29T14:19:25.853Z,100991.38
2018-06-29T14:21:56.011Z,100989.16
2018-06-29T14:24:26.163Z,100986.98
2018-06-29T14:26:55.938Z,100979.66
2018-06-29T14:29:25.594Z,100987.72
2018-06-29T14:31:55.265Z,100982.08
2018-06-29T14:34:25.146Z,100981.23
2018-06-29T14:36:55.660Z,100969.66
2018-06-29T14:39:25.859Z,100972.64
2018-06-29T14:41:55.522Z,100974.67
2018-06-29T14:44:25.256Z,100978.91
2018-06-29T14:46:55.067Z,100978.12
2018-06-29T14:49:25.878Z,100963.47
2018-06-29T14:51:55.736Z,100962.28
2018-06-29T14:54:25.469Z,100956.49
2018-06-29T14:56:55.179Z,100960.31
2018-06-29T14:59:24.504Z,100953.89
2018-06-29T15:01:54.429Z,100949.86
2018-06-29T15:04:24.147Z,100952.34
2018-06-29T15:06:54.585Z,100952.77
2018-06-29T15:09:24.270Z,100951.30
2018-06-29T15:11:54.069Z,100941.64
2018-06-29T15:14:23.993Z,100938.80
2018-06-29T15:16:53.705Z,100942.67
2018-06-29T15:19:23.373Z,100945.77
2018-06-29T15:21:53.266Z,100943.20
2018-06-29T15:24:23.813Z,100933.83
2018-06-29T15:26:53.566Z,100941.74
2018-06-29T15:29:23.172Z,100939.06
2018-06-29T15:31:53.714Z,100928.84
2018-06-29T15:34:23.406Z,100937.59
2018-06-29T15:36:53.120Z,100934.03
2018-06-29T15:39:22.774Z,100942.89
2018-06-29T15:41:53.360Z,100934.23
2018-06-29T15:44:23.661Z,100925.00
2018-06-29T15:46:56.609Z,100939.11
2018-06-29T15:49:29.117Z,100930.00
2018-06-29T15:51:59.919Z,100931.81
2018-06-29T15:54:29.588Z,100931.17
2018-06-29T15:57:01.345Z,100933.74
2018-06-29T15:59:31.161Z,100934.73
2018-06-29T16:02:01.011Z,100934.23
2018-06-29T16:04:30.720Z,100930.80
2018-06-29T16:07:00.437Z,100929.51
2018-06-29T16:09:30.458Z,100932.73
2018-06-29T16:12:01.383Z,100933.86
2018-06-29T16:14:32.294Z,100933.09
2018-06-29T16:17:03.434Z,100936.48
2018-06-29T16:19:33.741Z,100933.73
2018-06-29T16:22:03.547Z,100926.53
2018-06-29T16:24:33.380Z,100933.28
2018-06-29T16:27:03.088Z,100935.34
2018-06-29T16:29:32.849Z,100934.20
2018-06-29T16:32:02.553Z,100930.42
2018-06-29T16:34:32.285Z,100926.50
2018-06-29T16:37:01.959Z,100925.17
2018-06-29T16:39:31.722Z,100928.20
2018-06-29T16:42:01.876Z,100925.62
2018-06-29T16:44:32.633Z,100927.27
2018-06-29T16:47:05.081Z,100929.48
2018-06-29T16:49:34.735Z,100928.23
2018-06-29T16:52:04.436Z,100928.88
2018-06-29T16:54:35.589Z,100923.57
2018-06-29T16:57:06.263Z,100917.17
2018-06-29T16:59:36.064Z,100918.27
2018-06-29T17:02:06.422Z,100922.88
2018-06-29T17:04:36.468Z,100924.34
2018-06-29T17:07:06.449Z,100925.19
2018-06-29T17:09:36.646Z,100932.66
2018-06-29T17:12:06.876Z,100928.80
2018-06-29T17:14:37.814Z,100920.86
2018-06-29T17:17:07.534Z,100923.00
2018-06-29T17:19:37.914Z,100921.82
2018-06-29T17:22:08.481Z,100919.28
2018-06-29T17:24:38.362Z,100912.16
2018-06-29T17:27:11.673Z,100915.52
2018-06-29T17:29:42.752Z,100911.09
2018-06-29T17:32:13.322Z,100920.95
2018-06-29T17:34:43.459Z,100915.27
2018-06-29T17:37:15.831Z,100914.21
2018-06-29T17:39:49.812Z,100916.98
2018-06-29T17:42:23.671Z,100919.86
2018-06-29T17:44:53.860Z,100919.41
2018-06-29T17:47:24.249Z,100914.22
2018-06-29T17:49:56.878Z,100913.09
2018-06-29T17:52:28.041Z,100913.53
2018-06-29T17:55:00.980Z,100914.95
2018-06-29T17:57:36.065Z,100917.22
2018-06-29T18:00:11.895Z,100924.55
2018-06-29T18:02:44.520Z,100923.30
2018-06-29T18:05:23.616Z,100923.09
2018-06-29T18:07:56.511Z,100925.34
2018-06-29T18:10:30.823Z,100926.10
2018-06-29T18:13:04.359Z,100924.69
2018-06-29T18:15:37.625Z,100933.98
2018-06-29T18:18:09.629Z,100933.26
2018-06-29T18:20:40.445Z,100931.78
2018-06-29T18:23:10.897Z,100936.65
2018-06-29T18:25:43.335Z,100934.39
2018-06-29T18:28:14.420Z,100936.59
2018-06-29T18:30:45.225Z,100940.14
2018-06-29T18:33:17.296Z,100936.74
2018-06-29T18:35:49.925Z,100936.92
2018-06-29T18:38:20.091Z,100941.28
2018-06-29T18:40:52.127Z,100938.58
2018-06-29T18:43:23.278Z,100945.17
2018-06-29T18:45:53.356Z,100943.78
2018-06-29T18:48:24.913Z,100949.40
2018-06-29T18:50:55.056Z,100953.06
2018-06-29T18:53:25.133Z,100948.94
2018-06-29T18:55:56.424Z,100949.37
2018-06-29T18:58:28.052Z,100950.14
2018-06-29T19:00:58.544Z,100955.74
2018-06-29T19:03:28.177Z,100955.58
2018-06-29T19:05:58.827Z,100953.15
2018-06-29T19:08:29.228Z,100965.31
2018-06-29T19:10:59.347Z,100957.23
2018-06-29T19:13:30.407Z,100964.12
2018-06-29T19:16:00.545Z,100963.59
2018-06-29T19:18:30.611Z,100968.69
2018-06-29T19:21:01.553Z,100969.54
2018-06-29T19:23:32.072Z,100977.28
2018-06-29T19:26:03.209Z,100977.39
2018-06-29T19:28:34.880Z,100982.59
2018-06-29T19:31:05.114Z,100988.89
2018-06-29T19:33:35.623Z,100994.17
2018-06-29T19:36:06.098Z,100991.20
2018-06-29T19:38:36.174Z,100995.17
2018-06-29T19:41:08.669Z,100997.31
2018-06-29T19:43:38.829Z,101000.45
2018-06-29T19:46:09.671Z,101001.66
2018-06-29T19:48:40.761Z,101005.23
2018-06-29T19:51:10.973Z,101005.87
2018-06-29T19:53:43.042Z,101005.13
2018-06-29T19:56:13.898Z,101013.89
2018-06-29T19:58:43.757Z,101016.13
2018-06-29T20:01:13.458Z,101018.58
2018-06-29T20:03:43.316Z,101011.05
2018-06-29T20:06:13.499Z,101022.52
2018-06-29T20:08:43.547Z,101022.71
2018-06-29T20:11:13.551Z,101030.30
2018-06-29T20:13:43.515Z,101025.23
2018-06-29T20:16:15.336Z,101023.63
2018-06-29T20:18:46.977Z,101032.45
2018-06-29T20:21:17.417Z,101035.08
2018-06-29T20:23:48.226Z,101037.03
2018-06-29T20:26:18.054Z,101037.83
2018-06-29T20:28:47.952Z,101036.03
2018-06-29T20:31:18.991Z,101037.99
2018-06-29T20:33:50.843Z,101047.92
2018-06-29T20:36:23.425Z,101049.14
2018-06-29T20:38:53.956Z,101052.88
2018-06-29T20:41:24.289Z,101063.47
2018-06-29T20:43:54.188Z,101064.97
2018-06-29T20:46:25.626Z,101070.41
2018-06-29T20:48:55.695Z,101074.85
2018-06-29T20:51:26.940Z,101075.49
2018-06-29T20:53:58.729Z,101078.27
2018-06-29T20:56:28.453Z,101081.70
2018-06-29T20:58:59.518Z,101094.16
2018-06-29T21:01:29.247Z,101091.23
2018-06-29T21:03:59.039Z,101094.57
2018-06-29T21:06:33.312Z,101100.56
2018-06-29T21:09:05.827Z,101099.78
2018-06-29T21:11:36.625Z,101105.54
2018-06-29T21:14:09.690Z,101105.44
2018-06-29T21:16:40.165Z,101104.07
2018-06-29T21:19:12.043Z,101105.09
2018-06-29T21:21:42.982Z,101108.64
2018-06-29T21:24:15.788Z,101114.84
2018-06-29T21:26:46.366Z,101116.33
2018-06-29T21:29:20.045Z,101125.52
2018-06-29T21:31:51.117Z,101127.46
2018-06-29T21:34:21.121Z,101124.20
2018-06-29T21:36:53.656Z,101130.38
2018-06-29T21:39:24.477Z,101132.09
2018-06-29T21:41:56.734Z,101133.86
2018-06-29T21:44:27.391Z,101136.39
2018-06-29T21:46:59.112Z,101140.97
2018-06-29T21:49:29.817Z,101146.52
2018-06-29T21:52:00.207Z,101146.59
2018-06-29T21:54:34.567Z,101148.76
2018-06-29T21:57:06.698Z,101154.07
2018-06-29T21:59:38.590Z,101159.33
2018-06-29T22:02:10.166Z,101157.84
2018-06-29T22:04:40.316Z,101158.15
2018-06-29T22:07:12.061Z,101164.41
2018-06-29T22:09:44.175Z,101168.01
2018-06-29T22:12:22.148Z,101169.11
2018-06-29T22:14:52.284Z,101166.78
2018-06-29T22:17:22.214Z,101168.62
2018-06-29T22:19:52.654Z,101166.30
2018-06-29T22:22:24.389Z,101175.66
2018-06-29T22:24:56.081Z,101175.81
2018-06-29T22:27:29.289Z,101178.19
2018-06-29T22:29:59.520Z,101178.48
2018-06-29T22:32:32.637Z,101178.63
2018-06-29T22:35:03.123Z,101179.45
2018-06-29T22:37:38.158Z,101188.48
2018-06-29T22:40:09.328Z,101181.30
2018-06-29T22:42:39.816Z,101187.16
2018-06-29T22:45:09.984Z,101188.06
2018-06-29T22:47:40.533Z,101190.38
2018-06-29T22:50:11.904Z,101197.98
2018-06-29T22:52:44.180Z,101190.78
2018-06-29T22:55:15.597Z,101196.94
2018-06-29T22:57:45.527Z,101197.37
2018-06-29T23:00:17.308Z,101208.25
2018-06-29T23:02:48.364Z,101203.99
2018-06-29T23:05:19.652Z,101202.17
2018-06-29T23:07:49.680Z,101209.83
2018-06-29T23:10:26.082Z,101211.33
2018-06-29T23:12:56.740Z,101208.39
2018-06-29T23:15:27.302Z,101214.14
2018-06-29T23:17:58.513Z,101211.62
2018-06-29T23:20:29.861Z,101213.17
2018-06-29T23:23:04.356Z,101212.58
2018-06-29T23:25:35.240Z,101220.57
2018-06-29T23:28:06.798Z,101220.84
2018-06-29T23:30:37.504Z,101223.31
2018-06-29T23:33:08.884Z,101217.09
2018-06-29T23:35:38.944Z,101220.51
2018-06-29T23:38:11.551Z,101219.84
2018-06-29T23:40:44.245Z,101229.34
2018-06-29T23:43:15.961Z,101232.27
2018-06-29T23:45:48.896Z,101234.11
2018-06-29T23:48:23.467Z,101238.62
2018-06-29T23:50:54.202Z,101232.98
2018-06-29T23:53:24.331Z,101235.02
2018-06-29T23:55:56.522Z,101237.98
2018-06-29T23:58:26.972Z,101241.00
